Time;durP1;ratioP1;P1;durP2;ratioP2;P2;SDS_P1;SDS_P2;PMS_P1;PMS_P2;Temp;Humidity;BMP_temperature;BMP_pressure;BME280_temperature;BME280_humidity;BME280_pressure;Samples;Min_cycle;Max_cycle;Signal;HPM_P1;HPM_P2
2022/11/09 00:00:50;;;;;;;8.75;5.80;;;;;;;11.75;100.00;99880.78;5045803;28;20124;-74
2022/11/09 00:03:16;;;;;;;9.30;5.97;;;;;;;11.63;100.00;99861.16;5049018;28;20044;-75
2022/11/09 00:05:54;;;;;;;11.00;5.60;;;;;;;11.79;100.00;99877.03;5046248;28;20048;-73
2022/11/09 00:08:20;;;;;;;10.18;5.55;;;;;;;11.69;100.00;99871.38;5030119;28;20056;-70
2022/11/09 00:10:47;;;;;;;9.07;5.35;;;;;;;11.81;100.00;99889.25;5049335;28;20139;-74
2022/11/09 00:13:14;;;;;;;8.50;5.20;;;;;;;11.71;100.00;99871.28;5047974;28;20053;-74
2022/11/09 00:15:40;;;;;;;7.43;5.03;;;;;;;11.85;100.00;99895.22;5043913;28;20049;-71
2022/11/09 00:18:07;;;;;;;11.18;5.65;;;;;;;11.85;100.00;99887.28;5035886;28;20084;-71
2022/11/09 00:20:34;;;;;;;8.45;5.50;;;;;;;11.81;100.00;99891.03;5044004;28;20053;-76
2022/11/09 00:23:00;;;;;;;9.30;5.80;;;;;;;11.75;100.00;99897.56;5047482;28;20052;-73
2022/11/09 00:25:27;;;;;;;8.65;5.43;;;;;;;11.69;100.00;99902.34;5053717;28;20512;-70
2022/11/09 00:27:54;;;;;;;12.32;6.85;;;;;;;11.65;100.00;99937.97;5034267;28;20059;-71
2022/11/09 00:30:20;;;;;;;9.43;6.53;;;;;;;11.42;100.00;99911.00;5042982;28;20098;-71
2022/11/09 00:32:47;;;;;;;12.65;6.75;;;;;;;11.30;100.00;99911.72;5055674;28;20061;-70
2022/11/09 00:35:14;;;;;;;9.60;5.95;;;;;;;11.11;100.00;99888.06;5049305;28;20045;-71
2022/11/09 00:37:40;;;;;;;9.50;5.82;;;;;;;11.02;100.00;99882.44;5037601;28;20128;-72
2022/11/09 00:40:08;;;;;;;8.60;6.13;;;;;;;11.09;100.00;99895.25;5051969;28;20041;-72
2022/11/09 00:42:35;;;;;;;10.57;6.57;;;;;;;11.06;100.00;99870.69;5042329;28;20095;-70
2022/11/09 00:45:01;;;;;;;12.57;6.15;;;;;;;11.21;100.00;99886.56;5056093;28;20060;-69
2022/11/09 00:47:28;;;;;;;10.23;6.50;;;;;;;11.23;100.00;99884.69;5037010;28;20060;-70
2022/11/09 00:49:55;;;;;;;10.73;6.50;;;;;;;11.24;100.00;99882.91;5050427;28;20048;-69
2022/11/09 00:52:22;;;;;;;9.13;6.10;;;;;;;11.24;100.00;99889.06;5050052;28;20103;-70
2022/11/09 00:54:49;;;;;;;11.50;6.68;;;;;;;11.24;100.00;99880.25;5038550;28;20091;-71
2022/11/09 00:57:15;;;;;;;8.95;5.82;;;;;;;11.35;100.00;99908.78;5041247;28;21851;-71
2022/11/09 00:59:42;;;;;;;9.43;6.45;;;;;;;11.39;100.00;99927.06;5044078;28;20135;-71
2022/11/09 01:02:09;;;;;;;10.75;6.45;;;;;;;11.39;100.00;99929.72;5060810;28;20135;-71
2022/11/09 01:04:35;;;;;;;11.00;6.15;;;;;;;11.46;100.00;99922.28;5050547;28;20036;-71
2022/11/09 01:07:02;;;;;;;9.50;6.10;;;;;;;11.54;100.00;99920.03;5036227;28;20144;-72
2022/11/09 01:09:29;;;;;;;11.13;6.35;;;;;;;11.52;100.00;99922.75;5043586;28;20053;-71
2022/11/09 01:11:55;;;;;;;10.52;6.53;;;;;;;11.33;100.00;99889.50;5047582;28;20051;-71
2022/11/09 01:14:22;;;;;;;10.00;6.93;;;;;;;11.46;100.00;99888.69;5041353;28;20049;-71
2022/11/09 01:16:49;;;;;;;10.40;6.80;;;;;;;11.44;100.00;99884.41;5037043;28;20055;-71
2022/11/09 01:19:16;;;;;;;12.80;7.43;;;;;;;11.47;100.00;99882.44;5042361;28;20143;-72
2022/11/09 01:21:42;;;;;;;12.73;6.78;;;;;;;11.46;100.00;99895.78;5074114;28;20135;-71
2022/11/09 01:24:09;;;;;;;12.30;7.10;;;;;;;11.43;100.00;99899.44;5041343;28;20584;-72
2022/11/09 01:26:36;;;;;;;12.50;7.93;;;;;;;11.27;100.00;99873.94;5042980;28;21992;-72
2022/11/09 01:29:02;;;;;;;11.77;7.45;;;;;;;11.27;100.00;99874.78;5035004;28;20446;-72
2022/11/09 01:31:29;;;;;;;10.68;7.82;;;;;;;11.24;100.00;99882.91;5046046;28;20485;-71
2022/11/09 01:33:56;;;;;;;14.88;8.68;;;;;;;11.23;100.00;99894.44;5044664;28;20073;-71
2022/11/09 01:36:23;;;;;;;12.80;7.80;;;;;;;11.28;100.00;99905.66;5043772;28;20079;-73
2022/11/09 01:38:50;;;;;;;10.32;7.40;;;;;;;11.44;100.00;99932.13;5046162;28;20043;-72
2022/11/09 01:41:20;;;;;;;16.05;8.50;;;;;;;11.41;100.00;99930.50;5041196;28;20080;-72
2022/11/09 01:44:10;;;;;;;13.25;8.77;;;;;;;11.45;100.00;99942.66;5043418;28;20052;-72
2022/11/09 01:46:39;;;;;;;12.63;8.60;;;;;;;11.26;100.00;99920.78;5040109;28;20132;-71
2022/11/09 01:49:19;;;;;;;16.52;9.00;;;;;;;11.23;100.00;99918.28;5040370;28;20052;-72
2022/11/09 01:51:57;;;;;;;13.23;8.60;;;;;;;11.29;100.00;99930.34;5037545;28;21379;-72
2022/11/09 01:54:30;;;;;;;13.30;8.32;;;;;;;11.45;100.00;99947.09;5041539;28;20128;-72
2022/11/09 01:57:02;;;;;;;14.13;8.73;;;;;;;11.50;100.00;99947.66;5035538;28;20239;-71
2022/11/09 01:59:32;;;;;;;12.68;8.38;;;;;;;11.51;100.00;99941.41;5040477;28;20099;-72
2022/11/09 02:01:59;;;;;;;15.77;9.75;;;;;;;11.50;100.00;99945.88;5049105;28;20049;-72
2022/11/09 02:04:32;;;;;;;14.68;8.93;;;;;;;11.53;100.00;99934.22;5043199;28;20055;-73
2022/11/09 02:06:58;;;;;;;15.35;9.40;;;;;;;11.47;100.00;99910.75;5043898;28;20049;-72
2022/11/09 02:09:48;;;;;;;19.73;10.23;;;;;;;11.57;100.00;99926.00;5036727;28;20046;-73
2022/11/09 02:12:17;;;;;;;18.15;9.88;;;;;;;11.59;100.00;99913.53;5044701;28;20072;-73
2022/11/09 02:14:44;;;;;;;13.07;9.10;;;;;;;11.69;100.00;99923.56;5038842;28;20080;-72
2022/11/09 02:17:11;;;;;;;14.93;9.30;;;;;;;11.73;100.00;99919.81;5043243;28;20131;-73
2022/11/09 02:19:37;;;;;;;12.48;9.30;;;;;;;11.77;100.00;99914.28;5049475;28;20136;-72
2022/11/09 02:22:04;;;;;;;13.48;9.18;;;;;;;11.63;100.00;99886.81;5050173;28;20037;-73
2022/11/09 02:24:32;;;;;;;14.18;9.30;;;;;;;11.91;100.00;99914.31;5044552;28;20115;-74
2022/11/09 02:26:59;;;;;;;17.23;9.52;;;;;;;11.72;100.00;99865.06;5043515;28;20060;-73
2022/11/09 02:29:36;;;;;;;12.73;9.00;;;;;;;11.82;100.00;99867.06;5039035;28;20075;-74
2022/11/09 02:32:07;;;;;;;12.80;8.70;;;;;;;11.96;100.00;99899.91;5049793;28;20083;-73
2022/11/09 02:34:34;;;;;;;12.93;9.00;;;;;;;11.96;100.00;99887.50;5047342;28;20045;-72
2022/11/09 02:37:00;;;;;;;14.07;8.68;;;;;;;12.03;100.00;99894.13;5044352;28;20126;-71
2022/11/09 02:39:27;;;;;;;11.85;7.95;;;;;;;12.02;100.00;99875.63;5037633;28;20045;-73
2022/11/09 02:42:10;;;;;;;12.25;8.52;;;;;;;12.02;100.00;99876.50;5052702;28;20040;-72
2022/11/09 02:44:46;;;;;;;11.32;7.53;;;;;;;12.02;100.00;99859.72;5045305;28;20516;-74
2022/11/09 02:47:13;;;;;;;13.93;7.63;;;;;;;11.93;100.00;99838.13;5044913;28;20053;-72
2022/11/09 02:49:40;;;;;;;8.80;6.75;;;;;;;11.87;100.00;99811.94;5042147;28;20496;-74
2022/11/09 02:52:06;;;;;;;11.55;7.20;;;;;;;12.04;100.00;99833.94;5044299;28;20102;-73
2022/11/09 02:54:33;;;;;;;7.53;6.10;;;;;;;12.03;100.00;99830.44;5048781;28;20065;-71
2022/11/09 02:56:59;;;;;;;9.27;6.22;;;;;;;12.00;100.00;99835.91;5043536;28;20493;-73
2022/11/09 02:59:26;;;;;;;11.52;6.80;;;;;;;12.00;100.00;99829.75;5042237;28;20379;-71
2022/11/09 03:01:53;;;;;;;9.60;5.85;;;;;;;11.97;100.00;99830.81;5045104;28;20462;-73
2022/11/09 03:04:19;;;;;;;11.60;6.43;;;;;;;11.90;100.00;99838.31;5049648;28;20063;-73
2022/11/09 03:06:46;;;;;;;9.32;6.30;;;;;;;11.98;100.00;99856.38;5051665;28;20063;-73
2022/11/09 03:09:12;;;;;;;8.98;5.88;;;;;;;12.01;100.00;99860.66;5042541;28;20049;-74
2022/11/09 03:11:40;;;;;;;8.40;5.80;;;;;;;12.01;100.00;99850.91;5047559;28;20055;-72
2022/11/09 03:14:08;;;;;;;6.38;5.78;;;;;;;11.95;100.00;99827.41;5047076;28;20107;-73
2022/11/09 03:16:38;;;;;;;7.90;5.40;;;;;;;12.02;100.00;99831.38;5046597;28;20405;-73
2022/11/09 03:19:06;;;;;;;6.50;4.95;;;;;;;12.03;100.00;99821.63;5039744;28;20512;-72
2022/11/09 03:21:33;;;;;;;10.88;5.43;;;;;;;12.04;100.00;99824.19;5053262;28;20045;-73
2022/11/09 03:24:00;;;;;;;6.25;4.72;;;;;;;11.91;100.00;99802.00;5048427;28;20405;-73
2022/11/09 03:26:26;;;;;;;7.85;4.88;;;;;;;12.13;100.00;99820.09;5048620;28;20081;-73
2022/11/09 03:28:53;;;;;;;7.55;4.68;;;;;;;12.09;100.00;99831.88;5033586;28;20059;-73
2022/11/09 03:31:19;;;;;;;5.07;4.57;;;;;;;11.93;100.00;99816.03;5044086;28;20049;-73
2022/11/09 03:33:46;;;;;;;5.90;4.55;;;;;;;12.10;100.00;99846.84;5042602;28;20068;-73
2022/11/09 03:36:12;;;;;;;7.90;4.78;;;;;;;11.92;100.00;99823.16;5046359;28;20053;-74
2022/11/09 03:38:39;;;;;;;5.43;4.68;;;;;;;12.04;100.00;99864.00;5038249;28;20037;-73
2022/11/09 03:41:05;;;;;;;6.18;5.55;;;;;;;12.01;100.00;99865.97;5050862;28;20512;-73
2022/11/09 03:43:32;;;;;;;8.80;5.00;;;;;;;12.05;100.00;99873.66;5045292;28;20048;-75
2022/11/09 03:45:58;;;;;;;7.72;5.35;;;;;;;11.78;100.00;99841.72;5053045;28;20147;-74
2022/11/09 03:48:25;;;;;;;7.05;5.07;;;;;;;12.08;100.00;99894.69;5038918;28;20044;-73
2022/11/09 03:50:52;;;;;;;7.28;5.25;;;;;;;12.05;100.00;99909.94;5046333;28;20057;-73
2022/11/09 03:53:18;;;;;;;10.00;6.03;;;;;;;11.92;100.00;99902.75;5048695;28;20412;-72
2022/11/09 03:55:45;;;;;;;8.30;5.93;;;;;;;12.02;100.00;99926.06;5046933;28;20041;-74
2022/11/09 03:58:12;;;;;;;7.90;6.00;;;;;;;12.05;100.00;99926.72;5033964;28;20141;-72
2022/11/09 04:00:39;;;;;;;8.40;6.40;;;;;;;12.07;100.00;99934.59;5045320;28;20044;-72
2022/11/09 04:03:05;;;;;;;10.18;6.35;;;;;;;12.06;100.00;99920.47;5047730;28;20049;-73
2022/11/09 04:05:32;;;;;;;8.88;6.50;;;;;;;12.04;100.00;99921.50;5044632;28;20049;-74
2022/11/09 04:07:58;;;;;;;8.93;5.60;;;;;;;12.06;100.00;99920.47;5044264;28;20124;-75
2022/11/09 04:10:26;;;;;;;9.43;5.63;;;;;;;12.00;100.00;99910.22;5044631;28;20072;-74
2022/11/09 04:12:53;;;;;;;7.95;5.60;;;;;;;12.09;100.00;99924.75;5048766;28;20052;-75
2022/11/09 04:15:20;;;;;;;7.88;5.68;;;;;;;12.07;100.00;99935.47;5057680;28;20040;-74
2022/11/09 04:17:57;;;;;;;7.93;6.20;;;;;;;11.94;100.00;99911.47;5045516;28;20631;-74
2022/11/09 04:20:25;;;;;;;8.82;7.10;;;;;;;12.09;100.00;99928.25;5052309;28;20062;-71
2022/11/09 04:22:56;;;;;;;10.40;6.90;;;;;;;12.08;100.00;99937.16;5039319;28;20065;-74
2022/11/09 04:25:24;;;;;;;11.13;6.60;;;;;;;12.04;100.00;99922.38;5042093;28;20041;-74
2022/11/09 04:27:56;;;;;;;9.35;7.25;;;;;;;12.01;100.00;99919.88;5039030;28;20120;-71
2022/11/09 04:30:23;;;;;;;11.10;7.63;;;;;;;12.03;100.00;99918.00;5040684;28;20091;-74
2022/11/09 04:32:50;;;;;;;9.85;7.10;;;;;;;12.05;100.00;99925.88;5050730;28;20060;-73
2022/11/09 04:35:16;;;;;;;11.10;7.45;;;;;;;11.92;100.00;99907.19;5045299;28;20098;-73
2022/11/09 04:37:43;;;;;;;10.77;7.82;;;;;;;12.10;100.00;99937.94;5041838;28;20136;-71
2022/11/09 04:40:10;;;;;;;9.55;7.30;;;;;;;12.09;100.00;99944.19;5037850;28;20405;-73
2022/11/09 04:42:37;;;;;;;10.50;8.10;;;;;;;12.08;100.00;99937.16;5043081;28;20485;-71
2022/11/09 04:45:04;;;;;;;10.30;7.50;;;;;;;11.92;100.00;99905.41;5043218;28;20362;-74
2022/11/09 04:47:31;;;;;;;9.98;7.25;;;;;;;12.07;100.00;99926.63;5041327;28;20139;-74
2022/11/09 04:49:57;;;;;;;11.68;7.45;;;;;;;12.08;100.00;99923.03;5039399;28;20037;-73
2022/11/09 04:52:24;;;;;;;8.70;7.13;;;;;;;12.09;100.00;99924.75;5041588;28;21384;-73
2022/11/09 04:54:50;;;;;;;9.40;7.53;;;;;;;12.09;100.00;99922.09;5042969;28;20055;-74
2022/11/09 04:57:17;;;;;;;12.63;7.85;;;;;;;12.11;100.00;99931.69;5034562;28;20197;-73
2022/11/09 04:59:43;;;;;;;10.77;7.90;;;;;;;12.09;100.00;99922.09;5032006;28;20637;-74
2022/11/09 05:02:10;;;;;;;8.13;7.10;;;;;;;12.10;100.00;99926.47;5041693;28;20417;-72
2022/11/09 05:04:36;;;;;;;11.00;8.63;;;;;;;12.09;100.00;99927.41;5049470;28;20121;-73
2022/11/09 05:07:03;;;;;;;9.63;7.70;;;;;;;12.12;100.00;99916.59;5043925;28;20049;-72
2022/11/09 05:09:29;;;;;;;13.05;7.55;;;;;;;12.20;100.00;99916.97;5033083;28;20052;-73
2022/11/09 05:11:56;;;;;;;12.70;7.93;;;;;;;12.22;100.00;99909.78;5040214;28;20045;-72
2022/11/09 05:14:23;;;;;;;10.88;8.13;;;;;;;12.21;100.00;99903.63;5040413;28;20563;-73
2022/11/09 05:16:49;;;;;;;10.30;7.90;;;;;;;12.30;100.00;99910.16;5048319;28;20055;-74
2022/11/09 05:19:16;;;;;;;12.07;8.68;;;;;;;12.31;100.00;99901.25;5035089;28;20135;-73
2022/11/09 05:21:43;;;;;;;10.75;7.72;;;;;;;12.29;100.00;99892.50;5043410;28;20136;-73
2022/11/09 05:24:09;;;;;;;12.15;8.20;;;;;;;12.28;100.00;99890.81;5039419;28;20481;-73
2022/11/09 05:26:38;;;;;;;12.75;8.13;;;;;;;12.31;100.00;99877.34;5041629;28;20580;-73
2022/11/09 05:29:10;;;;;;;10.25;7.82;;;;;;;12.32;100.00;99880.84;5033129;28;20438;-73
2022/11/09 05:31:37;;;;;;;10.85;7.82;;;;;;;12.30;100.00;99880.94;5046440;28;20144;-73
2022/11/09 05:34:05;;;;;;;8.65;7.47;;;;;;;12.36;100.00;99866.44;5044624;28;20063;-74
2022/11/09 05:36:32;;;;;;;11.40;8.18;;;;;;;12.35;100.00;99870.03;5041057;28;20048;-72
2022/11/09 05:38:59;;;;;;;13.80;8.73;;;;;;;12.34;100.00;99871.84;5026724;28;20058;-73
2022/11/09 05:41:26;;;;;;;9.93;8.70;;;;;;;12.32;100.00;99875.53;5041354;28;20055;-72
2022/11/09 05:43:53;;;;;;;10.15;8.60;;;;;;;12.18;100.00;99856.03;5037592;28;20053;-74
2022/11/09 05:46:20;;;;;;;12.90;9.02;;;;;;;12.23;100.00;99864.56;5041750;28;20119;-73
2022/11/09 05:48:46;;;;;;;11.57;9.10;;;;;;;12.26;100.00;99871.50;5038465;28;20056;-72
2022/11/09 05:51:14;;;;;;;11.93;9.05;;;;;;;12.32;100.00;99894.13;5046784;28;20424;-72
2022/11/09 05:53:40;;;;;;;11.45;9.23;;;;;;;12.28;100.00;99881.03;5034946;28;20081;-74
2022/11/09 05:56:12;;;;;;;14.82;10.18;;;;;;;12.39;100.00;99890.16;5042948;28;20134;-73
2022/11/09 05:58:40;;;;;;;11.10;9.60;;;;;;;12.41;100.00;99882.94;5046029;28;20127;-73
2022/11/09 06:01:12;;;;;;;13.35;9.98;;;;;;;12.37;100.00;99870.81;5051172;28;20090;-74
2022/11/09 06:03:40;;;;;;;14.23;10.45;;;;;;;12.44;100.00;99872.13;5054956;28;20067;-73
2022/11/09 06:06:09;;;;;;;12.63;10.75;;;;;;;12.40;100.00;99860.84;5052697;28;20048;-73
2022/11/09 06:08:36;;;;;;;13.60;11.25;;;;;;;12.24;100.00;99855.66;5040486;28;20145;-72
2022/11/09 06:11:05;;;;;;;16.27;11.82;;;;;;;12.34;100.00;99876.31;5045532;28;20147;-72
2022/11/09 06:13:32;;;;;;;17.58;12.85;;;;;;;12.36;100.00;99877.06;5040760;28;20045;-74
2022/11/09 06:16:02;;;;;;;17.35;13.63;;;;;;;12.37;100.00;99881.44;5052265;28;20483;-73
2022/11/09 06:18:30;;;;;;;18.30;13.45;;;;;;;12.38;100.00;99875.16;5043261;28;20085;-72
2022/11/09 06:21:00;;;;;;;18.48;13.43;;;;;;;12.39;100.00;99898.13;5047000;28;20066;-73
2022/11/09 06:23:28;;;;;;;20.50;14.57;;;;;;;12.29;100.00;99892.50;5048544;28;20131;-71
2022/11/09 06:26:08;;;;;;;18.33;15.05;;;;;;;12.20;100.00;99878.03;5040103;28;20499;-73
2022/11/09 06:28:36;;;;;;;20.92;15.85;;;;;;;12.15;100.00;99872.13;5041243;28;20061;-72
2022/11/09 06:31:06;;;;;;;22.85;15.98;;;;;;;12.43;100.00;99897.84;5047822;28;20053;-72
2022/11/09 06:33:34;;;;;;;21.42;16.08;;;;;;;12.38;100.00;99913.19;5047255;28;20040;-72
2022/11/09 06:36:02;;;;;;;19.10;15.23;;;;;;;12.35;100.00;99912.53;5059458;28;20064;-72
2022/11/09 06:38:29;;;;;;;23.17;17.23;;;;;;;12.30;100.00;99916.31;5043011;28;20451;-73
2022/11/09 06:40:58;;;;;;;22.45;17.92;;;;;;;12.29;100.00;99927.03;5041821;28;20484;-74
2022/11/09 06:43:26;;;;;;;22.45;17.88;;;;;;;12.24;100.00;99932.63;5038130;28;20053;-73
2022/11/09 06:45:53;;;;;;;24.25;18.45;;;;;;;12.23;100.00;99938.91;5048062;28;20051;-75
2022/11/09 06:48:19;;;;;;;26.98;18.60;;;;;;;12.24;100.00;99937.94;5048064;28;20810;-73
2022/11/09 06:50:46;;;;;;;28.10;19.40;;;;;;;12.25;100.00;99939.66;5043313;28;20088;-73
2022/11/09 06:53:14;;;;;;;25.23;19.85;;;;;;;12.27;100.00;99940.41;5046657;28;20064;-74
2022/11/09 06:55:41;;;;;;;26.98;19.65;;;;;;;12.24;100.00;99939.75;5050138;28;20620;-76
2022/11/09 06:58:15;;;;;;;25.45;19.38;;;;;;;12.18;100.00;99935.66;5043074;28;20102;-71
2022/11/09 07:00:43;;;;;;;28.23;20.38;;;;;;;12.09;100.00;99920.31;5038733;28;20466;-75
2022/11/09 07:03:17;;;;;;;30.45;19.75;;;;;;;12.23;100.00;99943.34;5052995;28;20114;-74
2022/11/09 07:05:46;;;;;;;28.48;19.55;;;;;;;12.24;100.00;99943.25;5053530;28;20045;-75
2022/11/09 07:08:14;;;;;;;25.80;18.50;;;;;;;12.22;100.00;99941.63;5035607;28;20072;-73
2022/11/09 07:10:41;;;;;;;28.55;18.90;;;;;;;12.23;100.00;99940.69;5045102;28;20757;-72
2022/11/09 07:13:08;;;;;;;26.00;19.15;;;;;;;12.28;100.00;99951.88;5043467;28;20147;-74
2022/11/09 07:15:36;;;;;;;25.77;18.75;;;;;;;12.27;100.00;99951.03;5051256;28;20052;-75
2022/11/09 07:18:05;;;;;;;24.33;17.42;;;;;;;12.30;100.00;99963.25;5039421;28;20541;-73
2022/11/09 07:20:32;;;;;;;23.85;17.92;;;;;;;12.29;100.00;99973.00;5040575;28;20521;-73
2022/11/09 07:22:59;;;;;;;28.45;19.73;;;;;;;12.28;100.00;99978.41;5040841;28;20077;-72
2022/11/09 07:25:26;;;;;;;28.27;18.98;;;;;;;12.23;100.00;99984.03;5047728;28;20067;-73
2022/11/09 07:27:53;;;;;;;26.67;17.90;;;;;;;12.13;100.00;99961.59;5044744;28;20105;-74
2022/11/09 07:30:20;;;;;;;27.55;18.90;;;;;;;12.26;100.00;99986.50;5037089;28;20051;-75
2022/11/09 07:32:47;;;;;;;26.23;18.58;;;;;;;12.25;100.00;99978.63;5043882;28;20738;-75
2022/11/09 07:35:33;;;;;;;23.70;17.15;;;;;;;12.36;100.00;99981.47;5047107;28;20048;-73
2022/11/09 07:38:00;;;;;;;23.75;16.67;;;;;;;12.36;100.00;99970.00;5037290;28;20429;-73
2022/11/09 07:40:28;;;;;;;22.70;16.40;;;;;;;12.44;100.00;99984.50;5034198;28;20048;-73
2022/11/09 07:43:03;;;;;;;23.70;17.33;;;;;;;12.42;100.00;99983.75;5046109;28;20056;-73
2022/11/09 07:45:30;;;;;;;24.23;15.95;;;;;;;12.42;100.00;99988.22;5046441;28;20063;-74
2022/11/09 07:47:59;;;;;;;19.95;15.77;;;;;;;12.39;100.00;99986.59;5046379;28;20501;-73
2022/11/09 07:50:28;;;;;;;23.42;15.82;;;;;;;12.42;100.00;99997.03;5033016;28;20037;-73
2022/11/09 07:52:56;;;;;;;24.85;16.67;;;;;;;12.34;100.00;99986.03;5048763;28;20045;-73
2022/11/09 07:55:24;;;;;;;21.67;16.45;;;;;;;12.45;100.00;100001.28;5051953;28;20049;-73
2022/11/09 07:57:59;;;;;;;23.48;16.23;;;;;;;12.43;100.00;99995.25;5042554;28;20045;-74
2022/11/09 08:00:27;;;;;;;18.95;14.63;;;;;;;12.46;100.00;100003.00;5038611;28;20036;-72
2022/11/09 08:02:54;;;;;;;18.85;14.52;;;;;;;12.31;100.00;99991.50;5042225;28;20068;-75
2022/11/09 08:05:21;;;;;;;19.40;14.40;;;;;;;12.30;100.00;99968.56;5052279;28;20132;-74
2022/11/09 08:07:52;;;;;;;15.65;12.65;;;;;;;12.51;100.00;99992.97;5041798;28;20111;-72
2022/11/09 08:10:19;;;;;;;13.55;12.02;;;;;;;12.55;100.00;100005.97;5031816;28;20053;-72
2022/11/09 08:12:52;;;;;;;16.25;11.90;;;;;;;12.49;100.00;100002.81;5051181;28;20132;-73
2022/11/09 08:15:19;;;;;;;15.30;12.20;;;;;;;12.43;100.00;99998.75;5048895;28;20084;-73
2022/11/09 08:17:45;;;;;;;14.05;12.32;;;;;;;12.45;100.00;100012.75;5036843;28;20144;-73
2022/11/09 08:20:12;;;;;;;15.02;12.13;;;;;;;12.47;100.00;100005.56;5042687;28;20052;-73
2022/11/09 08:22:42;;;;;;;15.07;11.65;;;;;;;12.49;100.00;100016.09;5043347;28;20920;-72
2022/11/09 08:25:10;;;;;;;15.82;11.82;;;;;;;12.30;100.00;99980.03;5044121;28;20045;-72
2022/11/09 08:27:39;;;;;;;14.98;12.30;;;;;;;12.31;100.00;99978.22;5045732;28;20045;-74
2022/11/09 08:30:08;;;;;;;13.68;11.82;;;;;;;12.56;100.00;100004.16;5038533;28;20494;-73
2022/11/09 08:32:34;;;;;;;14.05;11.18;;;;;;;12.58;100.00;100004.94;5048173;28;20052;-72
2022/11/09 08:35:02;;;;;;;16.45;12.15;;;;;;;12.63;100.00;100009.00;5047354;28;20052;-72
2022/11/09 08:37:28;;;;;;;16.92;13.63;;;;;;;12.65;100.00;100016.88;5043810;28;20504;-73
2022/11/09 08:39:55;;;;;;;15.90;11.80;;;;;;;12.51;100.00;99992.97;5036236;28;20144;-72
2022/11/09 08:42:21;;;;;;;17.83;13.05;;;;;;;12.68;100.00;100016.69;5041237;28;20042;-72
2022/11/09 08:44:48;;;;;;;14.05;12.00;;;;;;;12.72;100.00;100028.84;5045016;28;20059;-73
2022/11/09 08:47:15;;;;;;;15.00;11.60;;;;;;;12.57;100.00;99993.44;5041078;28;20053;-72
2022/11/09 08:49:43;;;;;;;18.10;12.25;;;;;;;12.76;100.00;100016.19;5034088;28;20058;-71
2022/11/09 08:52:09;;;;;;;15.63;12.30;;;;;;;12.81;100.00;100014.13;5038358;28;20049;-72
2022/11/09 08:54:36;;;;;;;14.05;12.10;;;;;;;12.84;100.00;100012.13;5037178;28;20045;-72
2022/11/09 08:57:02;;;;;;;15.55;12.73;;;;;;;12.82;100.00;100002.53;5037454;28;20045;-72
2022/11/09 08:59:29;;;;;;;14.85;12.13;;;;;;;12.83;100.00;99989.16;5028835;28;20072;-71
2022/11/09 09:01:56;;;;;;;14.55;12.32;;;;;;;12.98;100.00;100006.81;5035638;28;20049;-71
2022/11/09 09:04:23;;;;;;;14.02;11.77;;;;;;;13.12;100.00;100023.69;5032257;28;22374;-73
2022/11/09 09:06:49;;;;;;;14.30;12.05;;;;;;;13.02;100.00;99988.88;5035318;28;20094;-72
2022/11/09 09:09:16;;;;;;;14.02;11.30;;;;;;;13.23;100.00;100015.91;5031101;28;20094;-71
2022/11/09 09:11:43;;;;;;;12.32;11.00;;;;;;;13.31;100.00;100010.97;5032012;28;20056;-73
2022/11/09 09:14:09;;;;;;;10.60;9.50;;;;;;;13.33;100.00;100007.25;5037462;28;20037;-74
2022/11/09 09:16:36;;;;;;;11.57;9.55;;;;;;;13.33;100.00;99999.28;5037058;28;20128;-77
2022/11/09 09:19:03;;;;;;;10.30;9.18;;;;;;;13.49;100.00;100012.44;5029342;28;20049;-75
2022/11/09 09:21:30;;;;;;;9.32;8.43;;;;;;;13.62;100.00;100018.66;5035675;28;20174;-75
2022/11/09 09:23:56;;;;;;;8.32;7.50;;;;;;;13.60;100.00;100001.94;5033227;28;20053;-73
2022/11/09 09:26:23;;;;;;;8.55;7.13;;;;;;;13.62;100.00;100012.47;5039204;28;20478;-76
2022/11/09 09:28:50;;;;;;;9.13;7.25;;;;;;;13.50;100.00;99994.66;5036961;28;20072;-74
2022/11/09 09:31:17;;;;;;;8.20;6.70;;;;;;;13.44;100.00;99989.75;5035003;28;20099;-76
2022/11/09 09:33:46;;;;;;;6.55;5.95;;;;;;;13.58;100.00;100024.28;5043954;28;20493;-71
2022/11/09 09:36:18;;;;;;;7.93;7.05;;;;;;;13.55;100.00;100033.31;5044061;28;20041;-74
2022/11/09 09:38:46;;;;;;;8.20;5.70;;;;;;;13.57;100.00;100042.03;5033544;28;20139;-75
2022/11/09 09:41:23;;;;;;;5.97;5.38;;;;;;;13.50;100.00;100043.41;5033955;28;20045;-76
2022/11/09 09:43:55;;;;;;;7.10;5.45;;;;;;;13.27;100.00;100014.75;5040925;28;20144;-75
2022/11/09 09:46:38;;;;;;;5.78;5.28;;;;;;;13.18;100.00;100023.34;5042849;28;20067;-76
2022/11/09 09:49:13;;;;;;;8.65;6.45;;;;;;;13.30;100.00;100049.13;5044052;28;20091;-71
2022/11/09 09:51:48;;;;;;;7.22;6.38;;;;;;;13.34;100.00;100048.00;5039266;28;20067;-75
2022/11/09 09:54:23;;;;;;;6.32;4.88;;;;;;;13.41;100.00;100049.28;5043436;28;20132;-73
2022/11/09 09:56:52;;;;;;;5.50;4.13;;;;;;;13.45;100.00;100060.59;5040225;28;20283;-73
2022/11/09 09:59:24;;;;;;;6.03;5.07;;;;;;;13.52;100.00;100052.16;5040237;28;20052;-71
2022/11/09 10:01:51;;;;;;;5.55;5.05;;;;;;;13.53;100.00;100031.72;5041802;28;20072;-76
2022/11/09 10:04:22;;;;;;;5.15;3.97;;;;;;;13.54;100.00;100018.28;5044782;28;20041;-75
2022/11/09 10:07:08;;;;;;;4.25;3.47;;;;;;;13.77;100.00;100054.06;5034792;28;20096;-71
2022/11/09 10:09:58;;;;;;;4.57;3.30;;;;;;;13.75;100.00;100050.63;5035863;28;20045;-75
2022/11/09 10:12:55;;;;;;;4.32;3.17;;;;;;;13.80;100.00;100056.53;5035319;28;20049;-77
2022/11/09 10:15:29;;;;;;;3.58;2.53;;;;;;;13.78;100.00;100030.94;5041869;28;20061;-76
2022/11/09 10:18:21;;;;;;;3.08;2.50;;;;;;;13.93;100.00;100052.09;5039441;28;20049;-78
2022/11/09 10:21:10;;;;;;;3.17;2.53;;;;;;;13.96;100.00;100043.06;5037824;28;20056;-74
2022/11/09 10:23:40;;;;;;;6.10;3.00;;;;;;;14.02;100.00;100030.16;5036179;28;20048;-72
2022/11/09 10:26:17;;;;;;;3.78;2.53;;;;;;;14.11;100.00;100042.03;5030117;28;20048;-78
2022/11/09 10:28:48;;;;;;;4.63;2.38;;;;;;;14.17;100.00;100035.41;5036198;28;20057;-80
2022/11/09 10:31:41;;;;;;;4.50;2.05;;;;;;;14.06;100.00;100014.84;5032177;28;20060;-77
2022/11/09 10:34:26;;;;;;;2.58;2.08;;;;;;;14.26;100.00;100033.00;5051581;28;20052;-79
2022/11/09 10:37:09;;;;;;;5.70;2.00;;;;;;;14.25;100.00;100025.97;5038146;28;20060;-71
2022/11/09 10:39:51;;;;;;;3.00;1.83;;;;;;;14.25;100.00;100025.13;5035217;28;20053;-77
2022/11/09 10:42:18;;;;;;;4.40;1.77;;;;;;;14.39;100.00;100033.88;5037369;28;20072;-80
2022/11/09 10:44:45;;;;;;;5.00;1.90;;;;;;;14.46;100.00;100030.81;5049190;28;20041;-80
2022/11/09 10:47:13;;;;;;;2.35;1.50;;;;;;;14.36;100.00;100001.25;5042980;28;20199;-76
2022/11/09 10:49:40;;;;;;;6.15;1.80;;;;;;;14.59;100.00;100021.03;5042097;28;20060;-72
2022/11/09 10:52:31;;;;;;;3.28;1.58;;;;;;;14.85;100.00;100025.38;5040437;28;20375;-76
2022/11/09 10:55:20;;;;;;;4.03;1.67;;;;;;;14.88;100.00;100030.50;5053558;28;20053;-77
2022/11/09 10:57:55;;;;;;;3.60;1.33;;;;;;;14.77;100.00;99989.56;5043332;28;20139;-79
2022/11/09 11:00:34;;;;;;;3.50;1.20;;;;;;;15.01;100.00;100026.00;5036519;28;20489;-77
2022/11/09 11:03:23;;;;;;;3.40;1.33;;;;;;;14.95;100.00;100017.59;5046760;28;20057;-77
2022/11/09 11:06:00;;;;;;;2.70;1.40;;;;;;;14.75;100.00;99995.00;5053040;28;20089;-75
2022/11/09 11:08:34;;;;;;;3.65;1.40;;;;;;;14.89;100.00;100016.22;5041786;28;20778;-69
2022/11/09 11:11:24;;;;;;;3.97;1.75;;;;;;;14.88;100.00;100017.16;5040144;28;20097;-71
2022/11/09 11:14:18;;;;;;;6.22;2.05;;;;;;;14.95;100.00;100013.09;5043891;28;20528;-74
2022/11/09 11:16:51;;;;;;;4.72;2.10;;;;;;;14.97;100.00;100012.97;5044359;28;20036;-79
2022/11/09 11:19:36;;;;;;;3.90;1.70;;;;;;;15.04;100.00;100033.78;5043800;28;20045;-77
2022/11/09 11:22:11;;;;;;;3.33;1.70;;;;;;;15.06;100.00;100037.19;5039780;28;20263;-79
2022/11/09 11:24:46;;;;;;;5.82;2.50;;;;;;;15.05;100.00;100035.50;5051180;28;20579;-73
2022/11/09 11:27:24;;;;;;;5.30;1.70;;;;;;;15.03;100.00;100044.56;5052243;28;20183;-77